Azalea, OR

9:08 AM PDT on October 24, 2014 (GMT -0700)
wolf creek | Change Station
CLOSE
Current Station
Personal Weather Station
Location: Wolf Creek, OR
Elevation: 1503 ft
Nearby Weather Stations

Elev 1503 ft 42.71 °N, 123.37 °W | Updated 16 seconds ago

Rain
Rain
52.0 °F
Feels Like 52.0 °F
N
4.3
Wind Variable Wind from NW
Gusts 4.3 mph

Today
High -- | Low -- °F
--% Chance of Precip.
Yesterday
High -- | Low -- °F
Precip. -- in
7:37 AM 6:16 PM
New Moon, 1% visible
Pressure 29.93 in
Visibility 5.0 miles
Clouds Mostly Cloudy 300 ft
Overcast 9000 ft
Dew Point 51 °F
Humidity 96%
Rainfall 0.24 in
Snow Depth Not available.
UV 0 out of 12
Pollen .40 out of 12
Air Quality Not available.
Flu Activity Sporadic
METAR KRBG 241553Z AUTO 36003KT 5SM -RA BR BKN003 OVC090 12/11 A2992 RMK AO2 SLP133 P0000 T01220106

More Conditions Fewer Conditions

Pressure 29.93 in
Visibility 5.0 miles
Clouds Mostly Cloudy 300 ft
Overcast 9000 ft
Dew Point 51 °F
Humidity 96%
Rainfall 0.24 in
Snow Depth Not available.
UV 0 out of 12
Pollen .40 out of 12
Air Quality Not available.
Flu Activity Sporadic
METAR KRBG 241553Z AUTO 36003KT 5SM -RA BR BKN003 OVC090 12/11 A2992 RMK AO2 SLP133 P0000 T01220106

More Conditions Fewer Conditions

10-Day Weather Forecast

Almanac

Astronomy

Oct. 24, 2014 Rise Set
Actual Time 7:37 AM PDT 6:16 PM PDT
Civil Twilight 7:08 AM PDT 6:45 PM PDT
Nautical Twilight 6:35 AM PDT 7:18 PM PDT
Astronomical Twilight 6:02 AM PDT 7:50 PM PDT
Moon 8:22 AM PDT 6:58 PM PDT
Length of Visible Light 11h 36m
Length of Day
10h 39m
Tomorrow will be 2m 42s shorter.
New Moon, 1% of the Moon is Illuminated
Today
New Moon
Oct 30
First Quarter
Nov 6
Full
Nov 14
Last Quarter
Nov 22
New

Today's Extremes

State Highs State Lows

Community

WunderPhotos

Upload Photos

1,764,597 photos uploaded!

WunderBlogs® & News

Nearby

Snow Depth

Station Depth Elevation
Fish Lake 0 in 4665 ft
Annie Springs 0 in 6020 ft
Billie Creek Divide 0 in 5300 ft
Big Red Mountain 0 in 6250 ft
Sevenmile Marsh 0 in 6200 ft

Earthquake Activity

City Distance Mag. Time & Date
No recent earthquake activity has been reported nearby.
Minimum magnitude displayed is 2.5.

Coastal Water Temperatures

Place Temperature
No Stations Reporting

Nearby Weather Stations